Time;durP1;ratioP1;P1;durP2;ratioP2;P2;SDS_P1;SDS_P2;PMS_P1;PMS_P2;Temp;Humidity;BMP_temperature;BMP_pressure;BME280_temperature;BME280_humidity;BME280_pressure;Samples;Min_cycle;Max_cycle;Signal;HPM_P1;HPM_P2
2023/03/26 00:00:32;;;;;;;22.95;3.28;;;;;;;;;;4888006;29;20422;-73
2023/03/26 00:02:59;;;;;;;18.02;2.60;;;;;;;;;;4889297;29;20032;-74
2023/03/26 00:05:40;;;;;;;17.38;3.85;;;;;;;;;;4904082;29;20028;-74
2023/03/26 00:08:34;;;;;;;20.48;3.22;;;;;;;;;;4888596;29;20413;-74
2023/03/26 00:11:19;;;;;;;12.82;2.33;;;;;;;;;;4901334;29;20033;-74
2023/03/26 00:14:34;;;;;;;14.48;3.22;;;;;;;;;;4903190;29;20049;-74
2023/03/26 00:17:01;;;;;;;21.50;3.85;;;;;;;;;;4887615;29;20033;-74
2023/03/26 00:19:33;;;;;;;20.60;3.63;;;;;;;;;;4871291;29;20036;-74
2023/03/26 00:22:02;;;;;;;14.23;2.85;;;;;;;;;;4888472;29;20083;-74
2023/03/26 00:24:29;;;;;;;13.88;2.50;;;;;;;;;;4882703;29;20116;-73
2023/03/26 00:26:55;;;;;;;16.92;2.67;;;;;;;;;;4888117;29;20386;-73
2023/03/26 00:29:23;;;;;;;13.80;3.22;;;;;;;;;;4890421;29;20040;-73
2023/03/26 00:32:21;;;;;;;16.38;4.05;;;;;;;;;;4887358;29;20067;-73
2023/03/26 00:35:10;;;;;;;;;;;;;;;;;;;;;
2023/03/26 00:37:44;;;;;;;20.88;3.22;;;;;;;;;;4887697;29;20052;-73
2023/03/26 00:43:31;;;;;;;18.60;3.50;;;;;;;;;;4887338;29;20036;-74
2023/03/26 00:48:49;;;;;;;17.48;2.78;;;;;;;;;;4889462;29;20101;-73
2023/03/26 00:51:16;;;;;;;17.83;2.72;;;;;;;;;;4885949;29;20029;-73
2023/03/26 00:53:46;;;;;;;15.70;3.72;;;;;;;;;;4884613;29;20117;-74
2023/03/26 00:56:31;;;;;;;18.52;3.75;;;;;;;;;;4890709;29;20029;-73
2023/03/26 01:02:04;;;;;;;20.77;3.47;;;;;;;;;;4882782;29;20051;-73
2023/03/26 01:05:02;;;;;;;21.00;3.00;;;;;;;;;;4903450;29;20044;-73
2023/03/26 01:08:00;;;;;;;;;;;;;;;;;;;;;
2023/03/26 01:14:34;;;;;;;;;;;;;;;;;;;;;
2023/03/26 01:17:18;;;;;;;31.08;4.15;;;;;;;;;;4839389;29;20049;-73
2023/03/26 01:19:53;;;;;;;18.05;2.75;;;;;;;;;;4861790;29;20044;-73
2023/03/26 01:22:24;;;;;;;20.88;2.83;;;;;;;;;;4904906;29;20055;-73
2023/03/26 01:24:55;;;;;;;17.40;2.58;;;;;;;;;;4885798;29;20048;-73
2023/03/26 01:27:39;;;;;;;18.15;4.22;;;;;;;;;;4884818;29;20040;-73
2023/03/26 01:30:24;;;;;;;23.27;3.38;;;;;;;;;;4884151;29;20803;-74
2023/03/26 01:33:13;;;;;;;18.05;3.03;;;;;;;;;;4882785;29;20569;-73
2023/03/26 01:35:45;;;;;;;20.73;2.63;;;;;;;;;;4886725;29;20136;-73
2023/03/26 01:38:29;;;;;;;25.35;3.97;;;;;;;;;;4885032;29;20051;-73
2023/03/26 01:41:36;;;;;;;21.45;4.57;;;;;;;;;;4888148;29;20092;-74
2023/03/26 01:44:45;;;;;;;24.27;2.80;;;;;;;;;;4903310;29;20036;-74
2023/03/26 01:47:15;;;;;;;17.67;3.05;;;;;;;;;;4877300;29;20044;-73
2023/03/26 01:49:41;;;;;;;22.92;2.90;;;;;;;;;;4886883;29;20057;-73
2023/03/26 01:52:23;;;;;;;25.63;4.43;;;;;;;;;;4885720;29;20060;-74
2023/03/26 01:54:50;;;;;;;25.65;4.80;;;;;;;;;;4887523;29;20035;-73
2023/03/26 01:57:31;;;;;;;28.30;3.17;;;;;;;;;;4887083;29;20020;-73
2023/03/26 02:00:12;;;;;;;28.52;4.00;;;;;;;;;;4912299;29;20454;-73
2023/03/26 02:02:48;;;;;;;21.17;3.90;;;;;;;;;;4884683;29;20052;-72
2023/03/26 02:05:16;;;;;;;22.55;3.53;;;;;;;;;;4889650;29;20095;-73
2023/03/26 02:10:50;;;;;;;28.48;3.60;;;;;;;;;;4888612;29;20479;-73
2023/03/26 02:13:16;;;;;;;21.08;3.38;;;;;;;;;;4889288;29;20056;-72
2023/03/26 02:15:54;;;;;;;19.15;3.03;;;;;;;;;;4891559;29;20040;-73
2023/03/26 02:18:22;;;;;;;17.70;2.78;;;;;;;;;;4890244;29;20350;-72
2023/03/26 02:20:51;;;;;;;19.77;3.70;;;;;;;;;;4890067;29;20487;-72
2023/03/26 02:23:18;;;;;;;24.30;3.22;;;;;;;;;;4890184;29;20101;-72
2023/03/26 02:25:54;;;;;;;25.30;3.55;;;;;;;;;;4887198;29;20486;-72
2023/03/26 02:28:21;;;;;;;25.77;3.45;;;;;;;;;;4921801;29;20033;-74
2023/03/26 02:30:56;;;;;;;27.80;5.07;;;;;;;;;;4917402;29;20179;-74
2023/03/26 02:33:46;;;;;;;22.38;4.30;;;;;;;;;;4920037;29;20036;-74
2023/03/26 02:36:12;;;;;;;21.95;4.15;;;;;;;;;;4919921;29;20057;-74
2023/03/26 02:38:40;;;;;;;27.73;4.05;;;;;;;;;;4890777;29;20040;-73
2023/03/26 02:41:06;;;;;;;16.23;2.90;;;;;;;;;;4890107;29;20040;-74
2023/03/26 02:43:33;;;;;;;23.80;3.90;;;;;;;;;;4922382;29;20571;-74
2023/03/26 02:46:01;;;;;;;20.98;3.05;;;;;;;;;;4888405;29;20040;-75
2023/03/26 02:48:27;;;;;;;25.15;3.22;;;;;;;;;;4921203;29;20024;-75
2023/03/26 02:50:53;;;;;;;27.40;4.15;;;;;;;;;;4890552;29;20496;-74
2023/03/26 02:53:28;;;;;;;27.90;4.05;;;;;;;;;;4919576;29;20036;-72
2023/03/26 02:55:55;;;;;;;25.27;3.45;;;;;;;;;;4921858;29;20057;-73
2023/03/26 02:58:24;;;;;;;18.58;2.90;;;;;;;;;;4906150;29;20035;-73
2023/03/26 03:00:53;;;;;;;20.00;3.05;;;;;;;;;;4914936;29;20729;-73
2023/03/26 03:03:23;;;;;;;23.13;3.78;;;;;;;;;;4890349;29;20458;-72
2023/03/26 03:05:50;;;;;;;22.20;3.47;;;;;;;;;;4903658;29;20169;-73
2023/03/26 03:08:17;;;;;;;21.13;3.35;;;;;;;;;;4921220;29;20115;-74
2023/03/26 03:10:43;;;;;;;28.40;2.88;;;;;;;;;;4921610;29;20040;-73
2023/03/26 03:13:09;;;;;;;18.23;2.58;;;;;;;;;;4901842;29;20040;-74
2023/03/26 03:15:35;;;;;;;16.83;3.28;;;;;;;;;;4886617;29;20104;-74
2023/03/26 03:18:02;;;;;;;26.35;2.70;;;;;;;;;;4905314;29;20087;-73
2023/03/26 03:20:29;;;;;;;29.42;4.53;;;;;;;;;;4890002;29;20084;-74
2023/03/26 03:22:55;;;;;;;22.45;3.22;;;;;;;;;;4888549;29;20454;-73
2023/03/26 03:25:22;;;;;;;26.42;4.78;;;;;;;;;;4903017;29;20492;-73
2023/03/26 03:27:49;;;;;;;21.27;4.43;;;;;;;;;;4919588;29;20156;-73
2023/03/26 03:30:15;;;;;;;27.23;4.47;;;;;;;;;;4918435;29;20036;-73
2023/03/26 03:32:44;;;;;;;15.95;2.75;;;;;;;;;;4920992;29;20033;-73
2023/03/26 03:35:10;;;;;;;19.77;2.83;;;;;;;;;;4887343;29;20370;-73
2023/03/26 03:37:36;;;;;;;25.73;3.42;;;;;;;;;;4919154;29;20036;-73
2023/03/26 03:40:06;;;;;;;18.77;3.58;;;;;;;;;;4905627;29;20461;-74
2023/03/26 03:42:32;;;;;;;32.97;3.58;;;;;;;;;;4885530;29;20027;-73
2023/03/26 03:44:58;;;;;;;33.13;3.45;;;;;;;;;;4890726;29;20105;-74
2023/03/26 03:47:24;;;;;;;20.48;3.10;;;;;;;;;;4917999;29;20040;-73
2023/03/26 03:49:50;;;;;;;22.45;3.67;;;;;;;;;;4920248;29;20041;-74
2023/03/26 03:52:17;;;;;;;20.13;4.53;;;;;;;;;;4904936;29;20115;-73
2023/03/26 03:54:45;;;;;;;17.55;3.15;;;;;;;;;;4885144;29;20041;-74
2023/03/26 03:57:11;;;;;;;20.38;3.35;;;;;;;;;;4874316;29;20040;-74
2023/03/26 03:59:37;;;;;;;22.42;3.45;;;;;;;;;;4901394;29;20100;-73
2023/03/26 04:02:04;;;;;;;22.83;3.55;;;;;;;;;;4890262;29;20024;-73
2023/03/26 04:04:31;;;;;;;24.45;3.80;;;;;;;;;;4920503;29;20484;-73
2023/03/26 04:06:57;;;;;;;19.75;3.30;;;;;;;;;;4888683;29;20033;-74
2023/03/26 04:09:23;;;;;;;13.30;3.22;;;;;;;;;;4917166;29;20120;-73
2023/03/26 04:12:10;;;;;;;24.17;3.40;;;;;;;;;;4915434;29;20285;-74
2023/03/26 04:14:40;;;;;;;18.30;3.08;;;;;;;;;;4890275;29;20387;-73
2023/03/26 04:17:06;;;;;;;15.50;2.90;;;;;;;;;;4888597;29;20052;-74
2023/03/26 04:19:32;;;;;;;17.20;2.83;;;;;;;;;;4888262;29;20028;-73
2023/03/26 04:22:01;;;;;;;25.65;3.22;;;;;;;;;;4902732;29;20729;-73
2023/03/26 04:24:28;;;;;;;19.65;3.47;;;;;;;;;;4915781;29;20119;-75
2023/03/26 04:26:57;;;;;;;30.48;4.15;;;;;;;;;;4887242;29;20029;-74
2023/03/26 04:29:26;;;;;;;21.98;2.92;;;;;;;;;;4913891;29;20025;-72
2023/03/26 04:32:15;;;;;;;;;;;;;;;;;;;;;
2023/03/26 04:34:47;;;;;;;19.40;3.53;;;;;;;;;;4888376;29;20047;-72
2023/03/26 04:37:26;;;;;;;25.08;4.05;;;;;;;;;;4888105;29;20044;-72
2023/03/26 04:39:53;;;;;;;17.00;2.90;;;;;;;;;;4891244;29;20082;-73
2023/03/26 04:42:23;;;;;;;24.38;4.22;;;;;;;;;;4888549;29;20027;-72
2023/03/26 04:44:49;;;;;;;26.45;3.28;;;;;;;;;;4889188;29;20040;-72
2023/03/26 04:47:16;;;;;;;24.17;3.60;;;;;;;;;;4914979;29;20044;-72
2023/03/26 04:49:43;;;;;;;19.90;2.92;;;;;;;;;;4886179;29;20096;-73
2023/03/26 04:52:15;;;;;;;16.40;3.45;;;;;;;;;;4889804;29;20363;-73
2023/03/26 04:54:42;;;;;;;25.92;3.50;;;;;;;;;;4916703;29;20036;-73
2023/03/26 04:57:20;;;;;;;27.67;3.38;;;;;;;;;;4890656;29;20045;-73
2023/03/26 05:00:18;;;;;;;24.23;4.47;;;;;;;;;;4917733;29;20063;-72
2023/03/26 05:02:49;;;;;;;22.20;3.45;;;;;;;;;;4886035;29;20810;-72
2023/03/26 05:05:41;;;;;;;28.70;3.80;;;;;;;;;;4917502;29;20028;-72
2023/03/26 05:11:18;;;;;;;24.48;2.72;;;;;;;;;;4887533;29;20037;-73
2023/03/26 05:13:47;;;;;;;19.23;3.28;;;;;;;;;;4885854;29;20021;-73
2023/03/26 05:16:13;;;;;;;21.80;3.22;;;;;;;;;;4887067;29;20025;-73
2023/03/26 05:18:39;;;;;;;23.83;4.05;;;;;;;;;;4888313;29;20036;-72
2023/03/26 05:21:25;;;;;;;16.02;3.03;;;;;;;;;;4889184;29;20032;-72
2023/03/26 05:23:54;;;;;;;17.45;2.92;;;;;;;;;;4912274;29;20115;-73
2023/03/26 05:26:20;;;;;;;24.88;2.83;;;;;;;;;;4895570;29;20177;-73
2023/03/26 05:28:54;;;;;;;23.77;4.03;;;;;;;;;;4906229;29;20024;-72
2023/03/26 05:31:20;;;;;;;19.75;3.20;;;;;;;;;;4897528;29;20113;-73
2023/03/26 05:33:56;;;;;;;18.20;3.25;;;;;;;;;;4891506;29;20021;-74
2023/03/26 05:36:27;;;;;;;19.45;3.90;;;;;;;;;;4876958;29;20028;-75
2023/03/26 05:38:53;;;;;;;18.10;3.17;;;;;;;;;;4926459;29;20036;-74
2023/03/26 05:41:19;;;;;;;17.25;3.22;;;;;;;;;;4916747;29;20036;-73
2023/03/26 05:43:48;;;;;;;24.30;4.05;;;;;;;;;;4885535;29;20063;-72
2023/03/26 05:46:14;;;;;;;22.63;2.42;;;;;;;;;;4892645;29;20028;-73
2023/03/26 05:48:44;;;;;;;21.90;2.95;;;;;;;;;;4892762;29;20347;-73
2023/03/26 05:51:11;;;;;;;24.50;3.60;;;;;;;;;;4896035;29;20028;-73
2023/03/26 05:53:37;;;;;;;19.50;3.08;;;;;;;;;;4908565;29;20466;-72
2023/03/26 05:56:03;;;;;;;21.13;3.17;;;;;;;;;;4894272;29;20033;-72
2023/03/26 05:58:30;;;;;;;23.02;3.40;;;;;;;;;;4881967;29;20044;-73
2023/03/26 06:01:04;;;;;;;20.67;2.67;;;;;;;;;;4912321;29;20043;-72
2023/03/26 06:03:41;;;;;;;18.98;3.47;;;;;;;;;;4896263;29;20024;-73
2023/03/26 06:06:18;;;;;;;21.88;3.60;;;;;;;;;;4895918;29;20059;-73
2023/03/26 06:08:49;;;;;;;20.70;2.58;;;;;;;;;;4893128;29;20036;-73
2023/03/26 06:11:19;;;;;;;20.17;4.05;;;;;;;;;;4893774;29;20028;-74
2023/03/26 06:13:54;;;;;;;21.55;4.50;;;;;;;;;;4925471;29;20033;-73
2023/03/26 06:16:20;;;;;;;21.85;3.88;;;;;;;;;;4891957;29;20449;-73
2023/03/26 06:18:49;;;;;;;15.02;3.30;;;;;;;;;;4893970;29;20470;-73
2023/03/26 06:21:15;;;;;;;25.42;3.08;;;;;;;;;;4890926;29;20032;-73
2023/03/26 06:23:41;;;;;;;22.50;3.58;;;;;;;;;;4909088;29;20084;-73
2023/03/26 06:26:07;;;;;;;16.73;2.95;;;;;;;;;;4911478;29;20415;-73
2023/03/26 06:28:34;;;;;;;26.73;3.55;;;;;;;;;;4904032;29;20029;-72
2023/03/26 06:31:01;;;;;;;27.08;4.50;;;;;;;;;;4902233;29;20055;-71
2023/03/26 06:33:33;;;;;;;14.73;2.55;;;;;;;;;;4888177;29;20900;-73
2023/03/26 06:39:22;;;;;;;30.33;3.05;;;;;;;;;;4892626;29;20054;-75
2023/03/26 06:48:01;;;;;;;;;;;6.90;99.90;;;;;;4822357;29;20080;-72
2023/03/26 06:50:27;;;;;;;16.63;2.88;;;;;;;;;;4901700;29;19911;-73
2023/03/26 06:52:54;;;;;;;19.08;2.83;;;;;;;;;;4893702;29;20040;-75
2023/03/26 06:55:20;;;;;;;20.45;3.15;;;;;;;;;;4894265;29;20029;-76
2023/03/26 06:58:24;;;;;;;27.92;5.88;;;;;;;;;;4894960;29;20024;-73
2023/03/26 07:01:02;;;;;;;28.48;4.55;;;;;;;;;;4871232;29;20045;-73
2023/03/26 07:03:28;;;;;;;19.13;4.47;;;;;;;;;;4854492;29;20038;-75
2023/03/26 07:05:54;;;;;;;24.35;5.75;;;;;;;;;;4873205;29;20021;-74
2023/03/26 07:08:20;;;;;;;24.55;3.15;;;;;;;;;;4864262;29;20037;-75
2023/03/26 07:10:47;;;;;;;24.38;3.17;;;;;;;;;;4876668;29;20029;-75
2023/03/26 07:13:14;;;;;;;19.27;2.60;;;;;;;;;;4874390;29;20041;-73
2023/03/26 07:15:40;;;;;;;24.05;3.47;;;;;;;;;;4876182;29;20044;-74
2023/03/26 07:18:06;;;;;;;12.13;2.50;;;;;;;;;;4880820;29;20475;-74
2023/03/26 07:20:32;;;;;;;23.92;3.10;;;;;;;;;;4883967;29;20044;-73
2023/03/26 07:22:59;;;;;;;38.53;5.72;;;;;;;;;;4875941;29;20145;-74
2023/03/26 07:25:25;;;;;;;18.65;3.17;;;;;;;;;;4884449;29;20029;-73
2023/03/26 07:27:54;;;;;;;18.38;3.17;;;;;;;;;;4911428;29;20075;-72
2023/03/26 07:30:23;;;;;;;27.95;4.85;;;;;;;;;;4903214;29;20462;-73
2023/03/26 07:32:54;;;;;;;20.48;3.22;;;;;;;;;;4907389;29;20393;-73
2023/03/26 07:35:30;;;;;;;24.13;5.07;;;;;;;;;;4909564;29;20571;-72
2023/03/26 07:37:59;;;;;;;41.53;10.93;;;;;;;;;;4895588;29;20046;-73
2023/03/26 07:40:44;;;;;;;21.20;2.90;;;;;;;;;;4902250;29;20082;-74
2023/03/26 07:43:38;;;;;;;23.55;3.53;;;8.00;99.90;;;;;;4921435;29;20024;-74
2023/03/26 07:46:04;;;;;;;16.42;2.92;;;;;;;;;;4911248;29;20036;-72
2023/03/26 07:48:41;;;;;;;30.67;3.13;;;;;;;;;;4897646;29;20032;-72
2023/03/26 07:51:07;;;;;;;18.98;2.95;;;;;;;;;;4908896;29;20077;-73
2023/03/26 07:53:34;;;;;;;19.17;2.47;;;;;;;;;;4912334;29;20028;-72
2023/03/26 07:56:04;;;;;;;19.40;3.85;;;;;;;;;;4897929;29;20101;-72
2023/03/26 07:58:42;;;;;;;24.35;3.60;;;;;;;;;;4914587;29;20020;-72
2023/03/26 08:01:19;;;;;;;11.57;2.22;;;;;;;;;;4894605;29;20391;-75
2023/03/26 08:03:52;;;;;;;16.48;2.85;;;;;;;;;;4894702;29;20029;-73
2023/03/26 08:06:30;;;;;;;17.40;2.45;;;;;;;;;;4880297;29;20759;-74
2023/03/26 08:08:59;;;;;;;25.30;3.55;;;;;;;;;;4920371;29;20355;-72
2023/03/26 08:11:25;;;;;;;19.45;3.70;;;;;;;;;;4920664;29;20418;-72
2023/03/26 08:14:10;;;;;;;31.20;9.18;;;;;;;;;;4921616;29;20025;-74
2023/03/26 08:16:39;;;;;;;23.73;6.47;;;;;;;;;;4933094;29;20032;-73
2023/03/26 08:19:25;;;;;;;22.50;3.70;;;;;;;;;;4902285;29;20370;-75
2023/03/26 08:21:59;;;;;;;19.48;3.45;;;;;;;;;;4905439;29;20032;-74
2023/03/26 08:24:30;;;;;;;13.10;2.67;;;;;;;;;;4892320;29;20044;-74
2023/03/26 08:27:03;;;;;;;20.90;3.80;;;;;;;;;;4883749;29;20447;-73
2023/03/26 08:29:38;;;;;;;19.75;3.17;;;;;;;;;;4896376;29;20043;-72
2023/03/26 08:32:08;;;;;;;13.30;2.00;;;;;;;;;;4886843;29;20020;-73
2023/03/26 08:34:34;;;;;;;14.98;2.90;;;;;;;;;;4887138;29;20088;-73
2023/03/26 08:37:00;;;;;;;17.00;2.90;;;;;;;;;;4892699;29;20028;-73
2023/03/26 08:39:26;;;;;;;17.42;3.08;;;;;;;;;;4888802;29;20028;-74
2023/03/26 08:41:58;;;;;;;14.52;2.53;;;;;;;;;;4886062;29;20535;-73
2023/03/26 08:44:40;;;;;;;11.35;2.03;;;;;;;;;;4892839;29;20032;-73
2023/03/26 08:47:06;;;;;;;15.25;2.63;;;;;;;;;;4932266;29;20036;-74
2023/03/26 08:49:52;;;;;;;13.68;2.33;;;;;;;;;;4888840;29;20103;-76
2023/03/26 08:52:38;;;;;;;38.03;7.53;;;;;;;;;;4902844;29;20405;-74
2023/03/26 08:55:16;;;;;;;20.85;7.03;;;;;;;;;;4905882;29;20025;-75
2023/03/26 08:57:54;;;;;;;21.45;3.00;;;;;;;;;;4919076;29;20124;-77
2023/03/26 09:00:39;;;;;;;10.95;2.05;;;;;;;;;;4903449;29;20035;-77
2023/03/26 09:03:25;;;;;;;16.70;2.85;;;;;;;;;;4901372;29;20514;-76
2023/03/26 09:06:09;;;;;;;11.10;3.00;;;;;;;;;;4915588;29;20056;-76
2023/03/26 09:08:39;;;;;;;15.32;2.00;;;;;;;;;;4917423;29;20017;-77
2023/03/26 09:11:24;;;;;;;15.77;2.72;;;;;;;;;;4890263;29;20157;-80
2023/03/26 09:14:16;;;;;;;18.20;3.15;;;;;;;;;;4926783;29;20065;-80
2023/03/26 09:16:55;;;;;;;20.98;3.88;;;;;;;;;;4893179;29;20462;-78
2023/03/26 09:19:27;;;;;;;20.38;3.92;;;;;;;;;;4894826;29;20020;-73
2023/03/26 09:22:20;;;;;;;19.00;2.35;;;;;;;;;;4890378;29;20044;-74
2023/03/26 09:24:58;;;;;;;12.00;2.25;;;;;;;;;;4880136;29;20037;-74
2023/03/26 09:27:27;;;;;;;19.67;3.22;;;;;;;;;;4888790;29;20462;-76
2023/03/26 09:30:02;;;;;;;16.48;2.40;;;;;;;;;;4893028;29;20044;-77
2023/03/26 09:32:33;;;;;;;15.75;2.70;;;;;;;;;;4926038;29;20068;-77
2023/03/26 09:35:09;;;;;;;13.45;2.47;;;;;;;;;;4908542;29;20035;-76
2023/03/26 09:37:41;;;;;;;16.92;2.28;;;;;;;;;;4922863;29;20119;-76
2023/03/26 09:40:08;;;;;;;18.35;4.07;;;;;;;;;;4916241;29;20029;-77
2023/03/26 09:42:43;;;;;;;19.98;2.90;;;;;;;;;;4917877;29;21055;-75
2023/03/26 09:45:25;;;;;;;22.58;4.15;;;;;;;;;;4911485;29;20526;-77
2023/03/26 09:47:51;;;;;;;15.82;3.25;;;;;;;;;;4877261;29;20355;-77
2023/03/26 09:50:28;;;;;;;13.95;3.03;;;;;;;;;;4919560;29;20044;-76
2023/03/26 09:53:09;;;;;;;21.65;3.25;;;;;;;;;;4889143;29;20041;-75
2023/03/26 09:55:39;;;;;;;19.25;3.13;;;;;;;;;;4894386;29;20115;-75
2023/03/26 09:58:24;;;;;;;20.65;3.08;;;;;;;;;;4902519;29;20116;-75
2023/03/26 10:00:53;;;;;;;17.90;3.35;;;;;;;;;;4888537;29;20037;-77
2023/03/26 10:03:32;;;;;;;25.23;3.10;;;;;;;;;;4888686;29;20035;-76
2023/03/26 10:05:58;;;;;;;17.08;3.10;;;;;;;;;;4914479;29;20128;-76
2023/03/26 10:08:46;;;;;;;16.55;2.20;;;;;;;;;;4888826;29;20124;-80
2023/03/26 10:11:13;;;;;;;15.98;2.45;;;;;;;;;;4884835;29;20449;-77
2023/03/26 10:13:58;;;;;;;13.23;2.00;;;;;;;;;;4917724;29;20024;-76
2023/03/26 10:16:33;;;;;;;13.85;2.67;;;;;;;;;;4888042;29;20056;-75
2023/03/26 10:19:08;;;;;;;13.32;2.95;;;;;;;;;;4888296;29;20025;-76
2023/03/26 10:21:40;;;;;;;12.35;2.55;;;;;;;;;;4894992;29;20024;-76
2023/03/26 10:24:09;;;;;;;12.63;1.95;;;;;;;;;;4894467;29;21828;-77
2023/03/26 10:27:00;;;;;;;17.02;2.45;;;;;;;;;;4898206;29;20036;-76
2023/03/26 10:29:32;;;;;;;20.15;3.17;;;;;;;;;;4893684;29;20187;-76
2023/03/26 10:32:30;;;;;;;12.52;1.80;;;10.10;99.90;;;;;;4904969;29;20032;-76
2023/03/26 10:35:02;;;;;;;14.32;2.83;;;;;;;;;;4898834;29;20041;-76
2023/03/26 10:37:37;;;;;;;12.90;2.15;;;;;;;;;;4902868;29;20036;-76
2023/03/26 10:40:16;;;;;;;16.90;2.85;;;;;;;;;;4891443;29;20036;-77
2023/03/26 10:42:54;;;;;;;18.95;3.35;;;;;;;;;;4911405;29;20031;-76
2023/03/26 10:45:54;;;;;;;18.75;5.28;;;9.90;99.90;;;;;;4896903;29;20029;-76
2023/03/26 10:48:20;;;;;;;13.35;2.30;;;;;;;;;;4893660;29;20385;-75
2023/03/26 10:51:15;;;;;;;16.15;2.75;;;10.00;99.90;;;;;;4896505;29;20150;-74
2023/03/26 10:53:49;;;;;;;11.90;2.58;;;;;;;;;;4906980;29;20422;-75
2023/03/26 10:56:18;;;;;;;12.13;2.25;;;;;;;;;;4919816;29;20025;-73
2023/03/26 10:58:45;;;;;;;11.02;1.80;;;;;;;;;;4892857;29;20034;-74
2023/03/26 11:01:15;;;;;;;13.55;2.08;;;;;;;;;;4895759;29;20043;-73
2023/03/26 11:03:53;;;;;;;10.95;2.30;;;;;;;;;;4891157;29;20104;-74
2023/03/26 11:06:19;;;;;;;19.48;2.75;;;;;;;;;;4909177;29;20021;-74
2023/03/26 11:08:52;;;;;;;19.67;3.20;;;;;;;;;;4892920;29;20021;-77
2023/03/26 11:11:18;;;;;;;18.02;5.78;;;;;;;;;;4922828;29;20489;-75
2023/03/26 11:13:47;;;;;;;10.75;2.65;;;;;;;;;;4926367;29;20462;-75
2023/03/26 11:16:29;;;;;;;17.25;2.15;;;;;;;;;;4899556;29;20470;-75
2023/03/26 11:19:14;;;;;;;15.93;2.85;;;;;;;;;;4918430;29;20032;-74
2023/03/26 11:21:47;;;;;;;12.93;2.38;;;;;;;;;;4883246;29;20446;-74
2023/03/26 11:24:31;;;;;;;12.10;2.05;;;;;;;;;;4894414;29;20462;-74
2023/03/26 11:27:09;;;;;;;10.48;2.17;;;;;;;;;;4923873;29;20032;-75
2023/03/26 11:29:43;;;;;;;12.98;1.98;;;;;;;;;;4896588;29;20032;-74
2023/03/26 11:32:11;;;;;;;11.82;2.65;;;;;;;;;;4911953;29;20025;-73
2023/03/26 11:34:39;;;;;;;17.55;3.67;;;;;;;;;;4922177;29;20024;-74
2023/03/26 11:37:08;;;;;;;19.02;2.72;;;;;;;;;;4924146;29;20046;-73
2023/03/26 11:39:41;;;;;;;11.10;2.35;;;;;;;;;;4908501;29;20432;-73
2023/03/26 11:42:09;;;;;;;9.57;2.05;;;;;;;;;;4891644;29;20049;-74
2023/03/26 11:44:39;;;;;;;11.88;2.10;;;;;;;;;;4909751;29;20111;-74
2023/03/26 11:47:08;;;;;;;8.43;2.17;;;;;;;;;;4921497;29;20025;-75
2023/03/26 11:49:36;;;;;;;8.00;2.05;;;;;;;;;;4892917;29;20079;-73
2023/03/26 11:52:03;;;;;;;9.82;1.73;;;;;;;;;;4895725;29;20036;-74
2023/03/26 11:54:29;;;;;;;19.00;2.50;;;;;;;;;;4908870;29;20096;-74
2023/03/26 11:57:01;;;;;;;19.75;2.95;;;;;;;;;;4892979;29;20064;-74
2023/03/26 11:59:37;;;;;;;10.40;1.88;;;;;;;;;;4891740;29;20029;-74
2023/03/26 12:02:12;;;;;;;13.27;2.28;;;;;;;;;;4901983;29;20052;-74
2023/03/26 12:04:40;;;;;;;8.45;2.53;;;;;;;;;;4896121;29;20017;-74
2023/03/26 12:07:09;;;;;;;10.80;1.58;;;;;;;;;;4898201;29;20028;-74
2023/03/26 12:09:35;;;;;;;11.18;1.88;;;;;;;;;;4913355;29;20029;-73
2023/03/26 12:12:03;;;;;;;15.07;2.55;;;;;;;;;;4899145;29;22372;-74
2023/03/26 12:14:31;;;;;;;11.30;2.90;;;;;;;;;;4926594;29;20032;-74
2023/03/26 12:17:05;;;;;;;9.45;2.33;;;;;;;;;;4919480;29;20365;-74
2023/03/26 12:19:41;;;;;;;16.52;2.47;;;;;;;;;;4927020;29;20488;-74
2023/03/26 12:22:45;;;;;;;11.02;2.53;;;;;;;;;;4894967;29;20393;-74
2023/03/26 12:25:16;;;;;;;11.20;2.10;;;;;;;;;;4910022;29;20028;-74
2023/03/26 12:27:44;;;;;;;18.88;3.33;;;;;;;;;;4897458;29;20031;-75
2023/03/26 12:30:12;;;;;;;16.23;2.55;;;;;;;;;;4895731;29;20369;-74
2023/03/26 12:32:41;;;;;;;15.35;2.10;;;;;;;;;;4895053;29;20040;-73
2023/03/26 12:35:07;;;;;;;8.93;2.15;;;;;;;;;;4895257;29;20035;-74
2023/03/26 12:37:35;;;;;;;14.30;2.25;;;;;;;;;;4895417;29;20020;-73
2023/03/26 12:40:10;;;;;;;16.42;3.17;;;;;;;;;;4894164;29;20028;-73
2023/03/26 12:42:40;;;;;;;15.05;2.95;;;;;;;;;;4893500;29;20572;-72
2023/03/26 12:45:06;;;;;;;16.77;2.05;;;;;;;;;;4907608;29;20029;-74
2023/03/26 12:47:33;;;;;;;8.73;2.08;;;;;;;;;;4909549;29;20462;-73
2023/03/26 12:49:59;;;;;;;13.18;2.60;;;;;;;;;;4927071;29;20039;-73
2023/03/26 12:52:43;;;;;;;18.55;2.35;;;;;;;;;;4911175;29;20044;-73
2023/03/26 12:55:16;;;;;;;13.27;2.97;;;;;;;;;;4926879;29;20032;-74
2023/03/26 12:57:56;;;;;;;16.25;2.15;;;;;;;;;;4888875;29;20024;-73
2023/03/26 13:00:27;;;;;;;14.05;2.15;;;;;;;;;;4886877;29;20025;-74
2023/03/26 13:02:59;;;;;;;10.23;2.40;;;;;;;;;;4901761;29;20557;-74
2023/03/26 13:05:41;;;;;;;17.02;2.15;;;;;;;;;;4876935;29;20021;-73
2023/03/26 13:08:43;;;;;;;10.32;2.00;;;;;;;;;;4889323;29;20036;-73
2023/03/26 13:11:15;;;;;;;11.65;2.70;;;;;;;;;;4908722;29;20032;-74
2023/03/26 13:13:45;;;;;;;;;;;10.70;99.90;;;;;;4894821;29;20045;-73
2023/03/26 13:16:17;;;;;;;11.57;2.08;;;;;;;;;;4925206;29;20252;-73
2023/03/26 13:18:50;;;;;;;15.00;2.67;;;;;;;;;;4905183;29;20112;-73
2023/03/26 13:21:24;;;;;;;14.88;2.35;;;;;;;;;;4894424;29;20131;-73
2023/03/26 13:24:00;;;;;;;13.50;1.77;;;;;;;;;;4906172;29;20087;-73
2023/03/26 13:26:34;;;;;;;10.63;1.80;;;;;;;;;;4903224;29;20355;-72
2023/03/26 13:29:09;;;;;;;13.25;1.90;;;;;;;;;;4895372;29;20044;-72
2023/03/26 13:31:48;;;;;;;10.30;2.50;;;;;;;;;;4905138;29;20028;-73
2023/03/26 13:34:33;;;;;;;13.13;2.13;;;;;;;;;;4925379;29;20039;-72
2023/03/26 13:37:20;;;;;;;17.45;2.00;;;;;;;;;;4893039;29;20035;-73
2023/03/26 13:39:49;;;;;;;17.90;1.90;;;;;;;;;;4924835;29;20020;-73
2023/03/26 13:42:22;;;;;;;12.15;1.95;;;;;;;;;;4894367;29;20084;-73
2023/03/26 13:44:52;;;;;;;9.40;1.65;;;;;;;;;;4893704;29;20271;-73
2023/03/26 13:47:37;;;;;;;8.75;1.60;;;;;;;;;;4904642;29;20036;-73
2023/03/26 13:50:27;;;;;;;17.38;2.30;;;;;;;;;;4908257;29;20025;-73
2023/03/26 13:53:01;;;;;;;14.88;2.20;;;;;;;;;;4892080;29;20459;-74
2023/03/26 13:55:30;;;;;;;11.77;2.00;;;;;;;;;;4892870;29;20035;-73
2023/03/26 13:58:00;;;;;;;8.38;1.70;;;;;;;;;;4899444;29;20373;-73
2023/03/26 14:00:31;;;;;;;6.28;1.40;;;;;;;;;;4899944;29;20462;-73
2023/03/26 14:03:15;;;;;;;9.45;1.95;;;;;;;;;;4890703;29;20037;-74
2023/03/26 14:05:49;;;;;;;12.73;1.67;;;;;;;;;;4884244;29;20028;-73
2023/03/26 14:08:28;;;;;;;8.13;1.90;;;;;;;;;;4886615;29;20041;-74
2023/03/26 14:11:09;;;;;;;11.48;2.00;;;;;;;;;;4888683;29;20032;-73
2023/03/26 14:14:02;;;;;;;11.38;2.00;;;;;;;;;;4888972;29;20048;-75
2023/03/26 14:16:43;;;;;;;9.45;3.97;;;;;;;;;;4891742;29;20040;-74
2023/03/26 14:19:18;;;;;;;10.57;2.45;;;;;;;;;;4907264;29;20025;-76
2023/03/26 14:21:49;;;;;;;16.50;2.72;;;;;;;;;;4891361;29;20036;-74
2023/03/26 14:24:40;;;;;;;10.55;2.83;;;;;;;;;;4910996;29;20441;-75
2023/03/26 14:27:06;;;;;;;11.63;2.28;;;;;;;;;;4896329;29;20020;-77
2023/03/26 14:29:50;;;;;;;9.13;2.05;;;;;;;;;;4892686;29;20040;-74
2023/03/26 14:32:19;;;;;;;14.68;1.88;;;;;;;;;;4907331;29;20382;-73
2023/03/26 14:34:54;;;;;;;13.52;2.40;;;;;;;;;;4883107;29;20029;-73
2023/03/26 14:37:39;;;;;;;8.55;2.00;;;;;;;;;;4912086;29;20024;-75
2023/03/26 14:40:25;;;;;;;9.68;1.98;;;;;;;;;;4902170;29;20036;-74
2023/03/26 14:43:17;;;;;;;8.05;2.00;;;9.80;99.90;;;;;;4881470;29;20031;-73
2023/03/26 14:45:43;;;;;;;13.55;2.42;;;;;;;;;;4900895;29;20492;-74
2023/03/26 14:48:28;;;;;;;14.93;1.88;;;;;;;;;;4883945;29;20028;-74
2023/03/26 14:51:19;;;;;;;12.85;2.25;;;;;;;;;;4887333;29;20533;-74
2023/03/26 14:53:47;;;;;;;15.82;1.80;;;;;;;;;;4911747;29;20457;-74
2023/03/26 14:56:14;;;;;;;7.93;1.73;;;;;;;;;;4888133;29;20029;-73
2023/03/26 14:58:43;;;;;;;8.90;1.52;;;;;;;;;;4888974;29;20563;-73
2023/03/26 15:01:21;;;;;;;8.35;2.15;;;;;;;;;;4885236;29;20037;-76
2023/03/26 15:03:50;;;;;;;28.13;12.90;;;;;;;;;;4879824;29;20071;-74
2023/03/26 15:06:19;;;;;;;12.13;2.40;;;;;;;;;;4888013;29;20044;-74
2023/03/26 15:09:02;;;;;;;10.07;2.15;;;;;;;;;;4887575;29;20094;-73
2023/03/26 15:11:31;;;;;;;;;;;9.10;99.90;;;;;;4897662;29;20029;-73
2023/03/26 15:14:34;;;;;;;14.60;2.97;;;9.40;99.90;;;;;;4885278;29;19967;-75
2023/03/26 15:17:41;;;;;;;9.48;2.03;;;9.10;99.90;;;;;;4882028;29;20088;-73
2023/03/26 15:20:19;;;;;;;9.75;2.63;;;;;;;;;;4916695;29;20422;-74
2023/03/26 15:22:58;;;;;;;10.13;1.50;;;;;;;;;;4913930;29;20048;-73
2023/03/26 15:25:24;;;;;;;7.15;2.72;;;;;;;;;;4882291;29;20031;-73
2023/03/26 15:28:22;;;;;;;10.60;1.98;;;;;;;;;;4883411;29;20043;-72
2023/03/26 15:31:08;;;;;;;5.43;1.33;;;;;;;;;;4882285;29;20472;-74
2023/03/26 15:33:34;;;;;;;13.68;1.83;;;;;;;;;;4890167;29;20052;-73
2023/03/26 15:36:03;;;;;;;7.95;2.22;;;;;;;;;;4913949;29;20063;-76
2023/03/26 15:38:37;;;;;;;12.40;2.40;;;;;;;;;;4898836;29;20066;-73
2023/03/26 15:41:22;;;;;;;8.23;1.50;;;;;;;;;;4887364;29;20036;-76